sensor_id;sensor_type;location;lat;lon;timestamp;pressure;altitude;pressure_sealevel;temperature;humidity
42111;BME280;27766;52.174;5.456;2023-09-19T00:00:39;100580.72;;;15.59;100.00
42111;BME280;27766;52.174;5.456;2023-09-19T00:03:08;100585.09;;;15.54;100.00
42111;BME280;27766;52.174;5.456;2023-09-19T00:05:37;100582.50;;;15.49;100.00
42111;BME280;27766;52.174;5.456;2023-09-19T00:08:12;100584.22;;;15.53;100.00
42111;BME280;27766;52.174;5.456;2023-09-19T00:10:42;100582.50;;;15.49;100.00
42111;BME280;27766;52.174;5.456;2023-09-19T00:13:10;100597.28;;;15.48;100.00
42111;BME280;27766;52.174;5.456;2023-09-19T00:15:44;100599.06;;;15.42;100.00
42111;BME280;27766;52.174;5.456;2023-09-19T00:18:19;100601.72;;;15.34;100.00
42111;BME280;27766;52.174;5.456;2023-09-19T00:20:51;100606.00;;;15.44;100.00
42111;BME280;27766;52.174;5.456;2023-09-19T00:23:20;100607.78;;;15.39;100.00
42111;BME280;27766;52.174;5.456;2023-09-19T00:25:48;100607.78;;;15.39;100.00
42111;BME280;27766;52.174;5.456;2023-09-19T00:28:16;100607.81;;;15.33;100.00
42111;BME280;27766;52.174;5.456;2023-09-19T00:30:43;100611.25;;;15.38;100.00
42111;BME280;27766;52.174;5.456;2023-09-19T00:33:11;100610.41;;;15.38;100.00
42111;BME280;27766;52.174;5.456;2023-09-19T00:35:54;100618.25;;;15.28;100.00
42111;BME280;27766;52.174;5.456;2023-09-19T00:38:22;100606.84;;;15.51;100.00
42111;BME280;27766;52.174;5.456;2023-09-19T00:40:54;100619.00;;;15.49;100.00
42111;BME280;27766;52.174;5.456;2023-09-19T00:43:27;100623.38;;;15.48;100.00
42111;BME280;27766;52.174;5.456;2023-09-19T00:45:56;100613.81;;;15.47;100.00
42111;BME280;27766;52.174;5.456;2023-09-19T00:48:24;100624.28;;;15.43;100.00
42111;BME280;27766;52.174;5.456;2023-09-19T00:50:54;100620.81;;;15.39;100.00
42111;BME280;27766;52.174;5.456;2023-09-19T00:53:23;100619.06;;;15.38;100.00
42111;BME280;27766;52.174;5.456;2023-09-19T00:55:52;100619.97;;;15.39;100.00
42111;BME280;27766;52.174;5.456;2023-09-19T00:58:20;100628.63;;;15.42;100.00
42111;BME280;27766;52.174;5.456;2023-09-19T01:00:50;100627.75;;;15.43;100.00
42111;BME280;27766;52.174;5.456;2023-09-19T01:03:18;100635.56;;;15.45;100.00
42111;BME280;27766;52.174;5.456;2023-09-19T01:05:46;100630.34;;;15.45;100.00
42111;BME280;27766;52.174;5.456;2023-09-19T01:08:13;100635.53;;;15.46;100.00
42111;BME280;27766;52.174;5.456;2023-09-19T01:10:49;100638.22;;;15.39;100.00
42111;BME280;27766;52.174;5.456;2023-09-19T01:13:29;100632.97;;;15.40;100.00
42111;BME280;27766;52.174;5.456;2023-09-19T01:16:14;100644.28;;;15.42;100.00
42111;BME280;27766;52.174;5.456;2023-09-19T01:19:02;100639.91;;;15.44;100.00
42111;BME280;27766;52.174;5.456;2023-09-19T01:24:24;100632.16;;;15.32;100.00
42111;BME280;27766;52.174;5.456;2023-09-19T01:27:25;100638.25;;;15.29;100.00
42111;BME280;27766;52.174;5.456;2023-09-19T01:30:13;100631.28;;;15.25;100.00
42111;BME280;27766;52.174;5.456;2023-09-19T01:32:41;100637.44;;;15.19;100.00
42111;BME280;27766;52.174;5.456;2023-09-19T01:35:10;100633.06;;;15.28;100.00
42111;BME280;27766;52.174;5.456;2023-09-19T01:37:40;100632.16;;;15.30;100.00
42111;BME280;27766;52.174;5.456;2023-09-19T01:40:13;100620.03;;;15.28;100.00
42111;BME280;27766;52.174;5.456;2023-09-19T01:46:19;100640.81;;;15.43;100.00
42111;BME280;27766;52.174;5.456;2023-09-19T01:48:57;100642.50;;;15.44;100.00
42111;BME280;27766;52.174;5.456;2023-09-19T01:52:00;100644.22;;;15.51;100.00
42111;BME280;27766;52.174;5.456;2023-09-19T01:54:31;100637.28;;;15.50;100.00
42111;BME280;27766;52.174;5.456;2023-09-19T01:57:16;100651.19;;;15.49;100.00
42111;BME280;27766;52.174;5.456;2023-09-19T01:59:59;100647.69;;;15.54;100.00
42111;BME280;27766;52.174;5.456;2023-09-19T02:02:27;100649.44;;;15.53;100.00
42111;BME280;27766;52.174;5.456;2023-09-19T02:04:56;100645.09;;;15.55;100.00
42111;BME280;27766;52.174;5.456;2023-09-19T02:07:24;100635.53;;;15.49;100.00
42111;BME280;27766;52.174;5.456;2023-09-19T02:09:51;100640.72;;;15.52;100.00
42111;BME280;27766;52.174;5.456;2023-09-19T02:12:18;100637.28;;;15.47;100.00
42111;BME280;27766;52.174;5.456;2023-09-19T02:14:46;100640.81;;;15.40;100.00
42111;BME280;27766;52.174;5.456;2023-09-19T02:17:13;100632.09;;;15.41;100.00
42111;BME280;27766;52.174;5.456;2023-09-19T02:19:40;100633.84;;;15.44;100.00
42111;BME280;27766;52.174;5.456;2023-09-19T02:22:08;100634.69;;;15.43;100.00
42111;BME280;27766;52.174;5.456;2023-09-19T02:24:37;100646.03;;;15.37;100.00
42111;BME280;27766;52.174;5.456;2023-09-19T02:27:05;100637.38;;;15.35;100.00
42111;BME280;27766;52.174;5.456;2023-09-19T02:29:32;100649.56;;;15.28;100.00
42111;BME280;27766;52.174;5.456;2023-09-19T02:32:01;100653.00;;;15.37;100.00
42111;BME280;27766;52.174;5.456;2023-09-19T02:34:29;100652.13;;;15.38;100.00
42111;BME280;27766;52.174;5.456;2023-09-19T02:36:56;100656.53;;;15.28;100.00
42111;BME280;27766;52.174;5.456;2023-09-19T02:39:24;100650.47;;;15.19;100.00
42111;BME280;27766;52.174;5.456;2023-09-19T02:41:51;100649.63;;;15.16;100.00
42111;BME280;27766;52.174;5.456;2023-09-19T02:44:18;100652.22;;;15.10;100.00
42111;BME280;27766;52.174;5.456;2023-09-19T02:46:46;100660.03;;;15.14;100.00
42111;BME280;27766;52.174;5.456;2023-09-19T02:49:14;100658.31;;;15.07;100.00
42111;BME280;27766;52.174;5.456;2023-09-19T02:51:41;100661.78;;;15.12;100.00
42111;BME280;27766;52.174;5.456;2023-09-19T02:54:09;100666.13;;;15.13;100.00
42111;BME280;27766;52.174;5.456;2023-09-19T02:56:36;100661.75;;;15.15;100.00
42111;BME280;27766;52.174;5.456;2023-09-19T02:59:04;100658.31;;;15.12;100.00
42111;BME280;27766;52.174;5.456;2023-09-19T03:01:32;100661.81;;;15.03;100.00
42111;BME280;27766;52.174;5.456;2023-09-19T03:04:00;100655.75;;;14.96;100.00
42111;BME280;27766;52.174;5.456;2023-09-19T03:06:27;100665.28;;;15.05;100.00
42111;BME280;27766;52.174;5.456;2023-09-19T03:08:58;100662.69;;;15.00;100.00
42111;BME280;27766;52.174;5.456;2023-09-19T03:11:26;100657.47;;;14.97;100.00
42111;BME280;27766;52.174;5.456;2023-09-19T03:13:55;100645.38;;;14.84;100.00
42111;BME280;27766;52.174;5.456;2023-09-19T03:16:22;100647.97;;;14.76;100.00
42111;BME280;27766;52.174;5.456;2023-09-19T03:18:50;100650.56;;;14.88;100.00
42111;BME280;27766;52.174;5.456;2023-09-19T03:21:17;100654.91;;;14.85;100.00
42111;BME280;27766;52.174;5.456;2023-09-19T03:23:46;100661.00;;;14.76;100.00
42111;BME280;27766;52.174;5.456;2023-09-19T03:26:14;100655.78;;;14.65;100.00
42111;BME280;27766;52.174;5.456;2023-09-19T03:28:43;100661.88;;;14.56;100.00
42111;BME280;27766;52.174;5.456;2023-09-19T03:31:11;100661.03;;;14.51;100.00
42111;BME280;27766;52.174;5.456;2023-09-19T03:33:38;100662.75;;;14.51;100.00
42111;BME280;27766;52.174;5.456;2023-09-19T03:36:06;100661.03;;;14.39;100.00
42111;BME280;27766;52.174;5.456;2023-09-19T03:38:34;100651.44;;;14.63;100.00
42111;BME280;27766;52.174;5.456;2023-09-19T03:41:02;100641.91;;;14.60;100.00
42111;BME280;27766;52.174;5.456;2023-09-19T03:43:29;100644.53;;;14.55;100.00
42111;BME280;27766;52.174;5.456;2023-09-19T03:46:01;100640.19;;;14.34;100.00
42111;BME280;27766;52.174;5.456;2023-09-19T03:48:30;100644.56;;;14.32;100.00
42111;BME280;27766;52.174;5.456;2023-09-19T03:50:57;100644.56;;;14.32;100.00
42111;BME280;27766;52.174;5.456;2023-09-19T03:53:25;100643.69;;;14.30;100.00
42111;BME280;27766;52.174;5.456;2023-09-19T03:55:52;100656.69;;;14.27;100.00
42111;BME280;27766;52.174;5.456;2023-09-19T03:58:20;100659.31;;;14.19;100.00
42111;BME280;27766;52.174;5.456;2023-09-19T04:00:47;100650.63;;;14.02;100.00
42111;BME280;27766;52.174;5.456;2023-09-19T04:03:17;100672.28;;;13.95;100.00
42111;BME280;27766;52.174;5.456;2023-09-19T04:05:48;100674.88;;;13.91;100.00
42111;BME280;27766;52.174;5.456;2023-09-19T04:08:15;100678.38;;;14.11;100.00
42111;BME280;27766;52.174;5.456;2023-09-19T04:10:43;100678.38;;;14.04;100.00
42111;BME280;27766;52.174;5.456;2023-09-19T04:13:11;100686.19;;;14.06;100.00
42111;BME280;27766;52.174;5.456;2023-09-19T04:15:39;100680.97;;;14.03;100.00
42111;BME280;27766;52.174;5.456;2023-09-19T04:18:07;100674.03;;;14.02;100.00
42111;BME280;27766;52.174;5.456;2023-09-19T04:20:34;100686.16;;;13.98;100.00
42111;BME280;27766;52.174;5.456;2023-09-19T04:23:02;100697.44;;;13.97;100.00
42111;BME280;27766;52.174;5.456;2023-09-19T04:25:29;100692.25;;;13.89;100.00
42111;BME280;27766;52.174;5.456;2023-09-19T04:27:57;100715.66;;;13.97;100.00
42111;BME280;27766;52.174;5.456;2023-09-19T04:30:25;100709.56;;;14.00;100.00
42111;BME280;27766;52.174;5.456;2023-09-19T04:32:52;100721.72;;;14.02;100.00
42111;BME280;27766;52.174;5.456;2023-09-19T04:35:20;100712.19;;;14.04;100.00
42111;BME280;27766;52.174;5.456;2023-09-19T04:37:48;100719.13;;;14.01;100.00
42111;BME280;27766;52.174;5.456;2023-09-19T04:40:17;100731.28;;;14.02;100.00
42111;BME280;27766;52.174;5.456;2023-09-19T04:42:53;100735.59;;;14.00;100.00
42111;BME280;27766;52.174;5.456;2023-09-19T04:45:23;100744.31;;;14.06;100.00
42111;BME280;27766;52.174;5.456;2023-09-19T04:47:50;100734.72;;;13.96;100.00
42111;BME280;27766;52.174;5.456;2023-09-19T04:50:18;100735.59;;;13.92;100.00
42111;BME280;27766;52.174;5.456;2023-09-19T04:52:49;100727.78;;;13.90;100.00
42111;BME280;27766;52.174;5.456;2023-09-19T04:55:18;100728.66;;;13.97;100.00
42111;BME280;27766;52.174;5.456;2023-09-19T04:57:48;100720.88;;;13.94;100.00
42111;BME280;27766;52.174;5.456;2023-09-19T05:00:24;100717.38;;;14.00;100.00
42111;BME280;27766;52.174;5.456;2023-09-19T05:02:55;100724.34;;;14.07;100.00
42111;BME280;27766;52.174;5.456;2023-09-19T05:05:24;100707.00;;;14.06;100.00
42111;BME280;27766;52.174;5.456;2023-09-19T05:07:52;100734.75;;;14.07;100.00
42111;BME280;27766;52.174;5.456;2023-09-19T05:10:21;100730.41;;;14.09;100.00
42111;BME280;27766;52.174;5.456;2023-09-19T05:12:52;100737.34;;;14.07;100.00
42111;BME280;27766;52.174;5.456;2023-09-19T05:15:20;100728.69;;;14.11;100.00
42111;BME280;27766;52.174;5.456;2023-09-19T05:17:49;100730.44;;;14.15;100.00
42111;BME280;27766;52.174;5.456;2023-09-19T05:20:21;100735.63;;;14.14;100.00
42111;BME280;27766;52.174;5.456;2023-09-19T05:22:58;100734.78;;;14.16;100.00
42111;BME280;27766;52.174;5.456;2023-09-19T05:25:31;100720.91;;;14.20;100.00
42111;BME280;27766;52.174;5.456;2023-09-19T05:27:58;100726.09;;;14.11;100.00
42111;BME280;27766;52.174;5.456;2023-09-19T05:30:26;100733.88;;;14.02;100.00
42111;BME280;27766;52.174;5.456;2023-09-19T05:32:56;100729.56;;;14.16;100.00
42111;BME280;27766;52.174;5.456;2023-09-19T05:35:24;100726.09;;;14.14;100.00
42111;BME280;27766;52.174;5.456;2023-09-19T05:37:54;100725.22;;;14.14;100.00
42111;BME280;27766;52.174;5.456;2023-09-19T05:40:22;100728.72;;;14.16;100.00
42111;BME280;27766;52.174;5.456;2023-09-19T05:42:50;100707.00;;;13.98;100.00
42111;BME280;27766;52.174;5.456;2023-09-19T05:45:18;100721.72;;;14.02;100.00
42111;BME280;27766;52.174;5.456;2023-09-19T05:47:52;100722.63;;;14.06;100.00
42111;BME280;27766;52.174;5.456;2023-09-19T05:50:23;100730.44;;;14.07;100.00
42111;BME280;27766;52.174;5.456;2023-09-19T05:52:52;100738.25;;;14.12;100.00
42111;BME280;27766;52.174;5.456;2023-09-19T05:55:20;100747.78;;;14.22;100.00
42111;BME280;27766;52.174;5.456;2023-09-19T05:57:52;100746.06;;;14.23;100.00
42111;BME280;27766;52.174;5.456;2023-09-19T06:00:20;100746.94;;;14.31;100.00
42111;BME280;27766;52.174;5.456;2023-09-19T06:02:54;100741.72;;;14.39;100.00
42111;BME280;27766;52.174;5.456;2023-09-19T06:05:21;100746.97;;;14.51;100.00
42111;BME280;27766;52.174;5.456;2023-09-19T06:07:49;100744.34;;;14.50;100.00
42111;BME280;27766;52.174;5.456;2023-09-19T06:10:17;100749.56;;;14.51;100.00
42111;BME280;27766;52.174;5.456;2023-09-19T06:12:45;100753.88;;;14.57;100.00
42111;BME280;27766;52.174;5.456;2023-09-19T06:15:14;100758.25;;;14.60;100.00
42111;BME280;27766;52.174;5.456;2023-09-19T06:17:53;100743.47;;;14.62;100.00
42111;BME280;27766;52.174;5.456;2023-09-19T06:20:26;100757.41;;;14.73;100.00
42111;BME280;27766;52.174;5.456;2023-09-19T06:22:54;100767.81;;;14.76;100.00
42111;BME280;27766;52.174;5.456;2023-09-19T06:25:21;100770.41;;;14.76;100.00
42111;BME280;27766;52.174;5.456;2023-09-19T06:27:53;100773.03;;;14.79;100.00
42111;BME280;27766;52.174;5.456;2023-09-19T06:30:24;100760.00;;;14.76;100.00
42111;BME280;27766;52.174;5.456;2023-09-19T06:32:59;100762.63;;;14.82;100.00
42111;BME280;27766;52.174;5.456;2023-09-19T06:35:28;100755.63;;;14.91;100.00
42111;BME280;27766;52.174;5.456;2023-09-19T06:38:03;100747.84;;;14.87;100.00
42111;BME280;27766;52.174;5.456;2023-09-19T06:40:31;100749.56;;;14.87;100.00
42111;BME280;27766;52.174;5.456;2023-09-19T06:43:01;100746.09;;;14.91;100.00
42111;BME280;27766;52.174;5.456;2023-09-19T06:45:29;100752.16;;;14.92;100.00
42111;BME280;27766;52.174;5.456;2023-09-19T06:47:58;100737.41;;;14.87;100.00
42111;BME280;27766;52.174;5.456;2023-09-19T06:50:27;100757.38;;;15.01;100.00
42111;BME280;27766;52.174;5.456;2023-09-19T06:52:56;100751.28;;;15.02;100.00
42111;BME280;27766;52.174;5.456;2023-09-19T06:55:25;100756.50;;;15.05;100.00
42111;BME280;27766;52.174;5.456;2023-09-19T06:57:56;100755.63;;;14.95;100.00
42111;BME280;27766;52.174;5.456;2023-09-19T07:00:23;100763.47;;;14.95;100.00
42111;BME280;27766;52.174;5.456;2023-09-19T07:03:01;100763.47;;;14.91;100.00
42111;BME280;27766;52.174;5.456;2023-09-19T07:05:31;100756.53;;;14.91;100.00
42111;BME280;27766;52.174;5.456;2023-09-19T07:07:59;100757.38;;;14.90;100.00
42111;BME280;27766;52.174;5.456;2023-09-19T07:10:28;100748.69;;;15.07;100.00
42111;BME280;27766;52.174;5.456;2023-09-19T07:12:56;100758.22;;;15.11;100.00
42111;BME280;27766;52.174;5.456;2023-09-19T07:15:25;100758.25;;;15.12;100.00
42111;BME280;27766;52.174;5.456;2023-09-19T07:17:54;100761.66;;;15.24;100.00
42111;BME280;27766;52.174;5.456;2023-09-19T07:20:22;100759.09;;;15.21;100.00
42111;BME280;27766;52.174;5.456;2023-09-19T07:22:52;100768.63;;;15.29;100.00
42111;BME280;27766;52.174;5.456;2023-09-19T07:25:21;100762.53;;;15.26;100.00
42111;BME280;27766;52.174;5.456;2023-09-19T07:27:49;100771.22;;;15.31;100.00
42111;BME280;27766;52.174;5.456;2023-09-19T07:30:18;100785.94;;;15.50;100.00
42111;BME280;27766;52.174;5.456;2023-09-19T07:32:45;100792.00;;;15.52;100.00
42111;BME280;27766;52.174;5.456;2023-09-19T07:35:12;100785.06;;;15.55;100.00
42111;BME280;27766;52.174;5.456;2023-09-19T07:37:40;100780.75;;;15.46;100.00
42111;BME280;27766;52.174;5.456;2023-09-19T07:40:07;100789.41;;;15.52;100.00
42111;BME280;27766;52.174;5.456;2023-09-19T07:42:38;100783.28;;;15.66;100.00
42111;BME280;27766;52.174;5.456;2023-09-19T07:45:08;100791.09;;;15.69;100.00
42111;BME280;27766;52.174;5.456;2023-09-19T07:47:36;100786.66;;;15.93;100.00
42111;BME280;27766;52.174;5.456;2023-09-19T07:50:03;100785.78;;;15.95;100.00
42111;BME280;27766;52.174;5.456;2023-09-19T07:52:32;100788.41;;;15.89;100.00
42111;BME280;27766;52.174;5.456;2023-09-19T07:55:00;100778.88;;;15.90;100.00
42111;BME280;27766;52.174;5.456;2023-09-19T07:57:33;100788.41;;;15.97;100.00
42111;BME280;27766;52.174;5.456;2023-09-19T08:00:02;100792.69;;;16.06;100.00
42111;BME280;27766;52.174;5.456;2023-09-19T08:02:38;100790.03;;;16.13;100.00
42111;BME280;27766;52.174;5.456;2023-09-19T08:05:06;100794.44;;;16.07;100.00
42111;BME280;27766;52.174;5.456;2023-09-19T08:07:42;100791.72;;;16.21;100.00
42111;BME280;27766;52.174;5.456;2023-09-19T08:10:09;100791.75;;;16.14;100.00
42111;BME280;27766;52.174;5.456;2023-09-19T08:12:40;100791.72;;;16.27;100.00
42111;BME280;27766;52.174;5.456;2023-09-19T08:15:15;100789.06;;;16.32;100.00
42111;BME280;27766;52.174;5.456;2023-09-19T08:17:43;100793.31;;;16.46;100.00
42111;BME280;27766;52.174;5.456;2023-09-19T08:20:11;100784.53;;;16.55;100.00
42111;BME280;27766;52.174;5.456;2023-09-19T08:22:50;100785.38;;;16.59;100.00
42111;BME280;27766;52.174;5.456;2023-09-19T08:25:26;100773.19;;;16.59;100.00
42111;BME280;27766;52.174;5.456;2023-09-19T08:27:55;100771.38;;;16.68;100.00
42111;BME280;27766;52.174;5.456;2023-09-19T08:30:25;100780.88;;;16.76;100.00
42111;BME280;27766;52.174;5.456;2023-09-19T08:32:58;100773.22;;;16.58;100.00
42111;BME280;27766;52.174;5.456;2023-09-19T08:35:27;100779.28;;;16.55;100.00
42111;BME280;27766;52.174;5.456;2023-09-19T08:37:54;100779.22;;;16.65;100.00
42111;BME280;27766;52.174;5.456;2023-09-19T08:40:23;100777.53;;;16.62;100.00
42111;BME280;27766;52.174;5.456;2023-09-19T08:42:54;100774.75;;;16.79;100.00
42111;BME280;27766;52.174;5.456;2023-09-19T08:45:23;100776.34;;;17.00;100.00
42111;BME280;27766;52.174;5.456;2023-09-19T08:48:28;100777.13;;;17.12;100.00
42111;BME280;27766;52.174;5.456;2023-09-19T08:54:29;100764.84;;;17.17;100.00
42111;BME280;27766;52.174;5.456;2023-09-19T08:57:05;100777.91;;;17.20;100.00
42111;BME280;27766;52.174;5.456;2023-09-19T08:59:37;100769.00;;;17.35;100.00
42111;BME280;27766;52.174;5.456;2023-09-19T09:02:12;100783.78;;;17.40;100.00
42111;BME280;27766;52.174;5.456;2023-09-19T09:04:43;100776.63;;;17.55;100.00
42111;BME280;27766;52.174;5.456;2023-09-19T09:07:12;100769.56;;;17.63;100.00
42111;BME280;27766;52.174;5.456;2023-09-19T09:09:45;100777.38;;;17.65;100.00
42111;BME280;27766;52.174;5.456;2023-09-19T09:12:14;100778.31;;;17.61;100.00
42111;BME280;27766;52.174;5.456;2023-09-19T09:14:46;100778.09;;;17.78;100.00
42111;BME280;27766;52.174;5.456;2023-09-19T09:17:17;100771.94;;;17.83;100.00
42111;BME280;27766;52.174;5.456;2023-09-19T09:19:47;100782.25;;;17.96;100.00
42111;BME280;27766;52.174;5.456;2023-09-19T09:22:15;100773.88;;;17.66;100.00
42111;BME280;27766;52.174;5.456;2023-09-19T09:24:55;100771.22;;;17.70;100.00
42111;BME280;27766;52.174;5.456;2023-09-19T09:27:25;100765.22;;;17.62;100.00
42111;BME280;27766;52.174;5.456;2023-09-19T09:29:53;100759.81;;;17.76;100.00
42111;BME280;27766;52.174;5.456;2023-09-19T09:32:24;100758.06;;;17.75;100.00
42111;BME280;27766;52.174;5.456;2023-09-19T09:34:57;100772.53;;;18.04;100.00
42111;BME280;27766;52.174;5.456;2023-09-19T09:37:28;100763.78;;;18.07;100.00
42111;BME280;27766;52.174;5.456;2023-09-19T09:39:59;100756.66;;;18.18;100.00
42111;BME280;27766;52.174;5.456;2023-09-19T09:42:46;100748.41;;;18.41;100.00
42111;BME280;27766;52.174;5.456;2023-09-19T09:45:22;100759.44;;;18.63;100.00
42111;BME280;27766;52.174;5.456;2023-09-19T09:48:03;100744.53;;;18.65;100.00
42111;BME280;27766;52.174;5.456;2023-09-19T09:50:33;100743.69;;;18.63;100.00
42111;BME280;27766;52.174;5.456;2023-09-19T09:53:24;100768.25;;;18.58;100.00
42111;BME280;27766;52.174;5.456;2023-09-19T09:56:07;100755.78;;;18.72;100.00
42111;BME280;27766;52.174;5.456;2023-09-19T09:58:38;100748.97;;;18.60;100.00
42111;BME280;27766;52.174;5.456;2023-09-19T10:01:17;100742.75;;;18.67;100.00
42111;BME280;27766;52.174;5.456;2023-09-19T10:03:45;100758.28;;;18.78;100.00
42111;BME280;27766;52.174;5.456;2023-09-19T10:06:16;100750.53;;;18.72;100.00
42111;BME280;27766;52.174;5.456;2023-09-19T10:12:06;100752.47;;;18.61;100.00
42111;BME280;27766;52.174;5.456;2023-09-19T10:14:38;100755.94;;;18.61;100.00
42111;BME280;27766;52.174;5.456;2023-09-19T10:17:05;100743.72;;;18.62;100.00
42111;BME280;27766;52.174;5.456;2023-09-19T10:19:40;100741.97;;;18.62;100.00
42111;BME280;27766;52.174;5.456;2023-09-19T10:22:14;100752.84;;;18.89;100.00
42111;BME280;27766;52.174;5.456;2023-09-19T10:24:49;100761.09;;;18.69;100.00
42111;BME280;27766;52.174;5.456;2023-09-19T10:27:26;100749.13;;;18.53;100.00
42111;BME280;27766;52.174;5.456;2023-09-19T10:29:53;100730.78;;;18.51;100.00
42111;BME280;27766;52.174;5.456;2023-09-19T10:32:22;100735.75;;;18.68;100.00
42111;BME280;27766;52.174;5.456;2023-09-19T10:34:51;100740.06;;;18.71;100.00
42111;BME280;27766;52.174;5.456;2023-09-19T10:37:23;100727.00;;;18.69;100.00
42111;BME280;27766;52.174;5.456;2023-09-19T10:39:56;100738.19;;;18.77;100.00
42111;BME280;27766;52.174;5.456;2023-09-19T10:42:25;100711.72;;;18.91;100.00
42111;BME280;27766;52.174;5.456;2023-09-19T10:45:00;100705.44;;;19.03;100.00
42111;BME280;27766;52.174;5.456;2023-09-19T10:47:29;100708.41;;;19.28;100.00
42111;BME280;27766;52.174;5.456;2023-09-19T10:49:58;100695.16;;;19.36;100.00
42111;BME280;27766;52.174;5.456;2023-09-19T10:52:26;100715.47;;;19.26;100.00
42111;BME280;27766;52.174;5.456;2023-09-19T10:54:56;100709.59;;;19.57;100.00
42111;BME280;27766;52.174;5.456;2023-09-19T10:57:27;100706.69;;;19.29;100.00
42111;BME280;27766;52.174;5.456;2023-09-19T11:00:05;100699.03;;;19.18;100.00
42111;BME280;27766;52.174;5.456;2023-09-19T11:05:39;100703.88;;;19.37;100.00
42111;BME280;27766;52.174;5.456;2023-09-19T11:08:08;100697.56;;;19.47;100.00
42111;BME280;27766;52.174;5.456;2023-09-19T11:10:49;100691.66;;;19.37;100.00
42111;BME280;27766;52.174;5.456;2023-09-19T11:13:28;100691.28;;;19.54;100.00
42111;BME280;27766;52.174;5.456;2023-09-19T11:26:44;100678.13;;;19.56;100.00
42111;BME280;27766;52.174;5.456;2023-09-19T11:29:24;100695.34;;;19.68;100.00
42111;BME280;27766;52.174;5.456;2023-09-19T11:31:52;100677.88;;;19.67;100.00
42111;BME280;27766;52.174;5.456;2023-09-19T11:39:39;100666.47;;;19.69;100.00
42111;BME280;27766;52.174;5.456;2023-09-19T11:42:46;100681.63;;;19.56;100.00
42111;BME280;27766;52.174;5.456;2023-09-19T11:48:24;100657.75;;;19.66;100.00
42111;BME280;27766;52.174;5.456;2023-09-19T11:50:53;100657.38;;;19.84;100.00
42111;BME280;27766;52.174;5.456;2023-09-19T11:53:21;100656.97;;;20.03;100.00
42111;BME280;27766;52.174;5.456;2023-09-19T11:55:49;100660.47;;;20.02;100.00
42111;BME280;27766;52.174;5.456;2023-09-19T11:58:18;100662.59;;;19.86;100.00
42111;BME280;27766;52.174;5.456;2023-09-19T12:00:54;100672.72;;;20.01;100.00
42111;BME280;27766;52.174;5.456;2023-09-19T12:03:29;100662.56;;;19.87;100.00
42111;BME280;27766;52.174;5.456;2023-09-19T12:05:58;100685.53;;;19.76;100.00
42111;BME280;27766;52.174;5.456;2023-09-19T12:08:26;100673.56;;;19.64;100.00
42111;BME280;27766;52.174;5.456;2023-09-19T12:10:54;100689.34;;;19.63;100.00
42111;BME280;27766;52.174;5.456;2023-09-19T12:13:25;100704.53;;;19.48;100.00
42111;BME280;27766;52.174;5.456;2023-09-19T12:15:52;100689.03;;;19.36;100.00
42111;BME280;27766;52.174;5.456;2023-09-19T12:18:29;100662.69;;;19.40;100.00
42111;BME280;27766;52.174;5.456;2023-09-19T12:20:57;100676.38;;;19.56;100.00
42111;BME280;27766;52.174;5.456;2023-09-19T12:23:25;100681.22;;;19.73;100.00
42111;BME280;27766;52.174;5.456;2023-09-19T12:25:54;100668.41;;;19.61;100.00
42111;BME280;27766;52.174;5.456;2023-09-19T12:28:26;100678.00;;;19.60;100.00
42111;BME280;27766;52.174;5.456;2023-09-19T12:30:54;100664.06;;;19.58;100.00
42111;BME280;27766;52.174;5.456;2023-09-19T12:33:25;100685.28;;;19.48;100.00
42111;BME280;27766;52.174;5.456;2023-09-19T12:35:54;100681.06;;;19.40;100.00
42111;BME280;27766;52.174;5.456;2023-09-19T12:38:27;100683.63;;;19.43;100.00
42111;BME280;27766;52.174;5.456;2023-09-19T12:41:02;100674.94;;;19.41;100.00
42111;BME280;27766;52.174;5.456;2023-09-19T12:43:31;100662.75;;;19.39;100.00
42111;BME280;27766;52.174;5.456;2023-09-19T12:46:00;100667.63;;;19.56;100.00
42111;BME280;27766;52.174;5.456;2023-09-19T12:48:28;100665.16;;;19.48;100.00
42111;BME280;27766;52.174;5.456;2023-09-19T12:51:09;100682.69;;;19.46;100.00
42111;BME280;27766;52.174;5.456;2023-09-19T12:53:44;100683.03;;;19.30;100.00
42111;BME280;27766;52.174;5.456;2023-09-19T12:56:14;100671.06;;;19.17;100.00
42111;BME280;27766;52.174;5.456;2023-09-19T13:01:17;100679.56;;;19.28;100.00
42111;BME280;27766;52.174;5.456;2023-09-19T13:03:44;100673.38;;;19.33;100.00
42111;BME280;27766;52.174;5.456;2023-09-19T13:06:13;100680.13;;;19.43;100.00
42111;BME280;27766;52.174;5.456;2023-09-19T13:08:45;100676.56;;;19.47;100.00
42111;BME280;27766;52.174;5.456;2023-09-19T13:11:17;100676.47;;;19.50;100.00
42111;BME280;27766;52.174;5.456;2023-09-19T13:14:16;100671.94;;;19.58;100.00
42111;BME280;27766;52.174;5.456;2023-09-19T13:19:41;100673.84;;;19.52;100.00
42111;BME280;27766;52.174;5.456;2023-09-19T13:25:21;100685.59;;;19.32;100.00
42111;BME280;27766;52.174;5.456;2023-09-19T13:27:54;100681.38;;;19.25;100.00
42111;BME280;27766;52.174;5.456;2023-09-19T13:30:23;100680.72;;;19.15;100.00
42111;BME280;27766;52.174;5.456;2023-09-19T13:32:53;100680.81;;;19.10;100.00
42111;BME280;27766;52.174;5.456;2023-09-19T13:35:31;100684.31;;;19.09;100.00
42111;BME280;27766;52.174;5.456;2023-09-19T13:37:59;100671.06;;;19.17;100.00
42111;BME280;27766;52.174;5.456;2023-09-19T13:40:28;100668.25;;;19.26;100.00
42111;BME280;27766;52.174;5.456;2023-09-19T13:42:59;100673.28;;;19.36;100.00